createdAt,value
2022-08-03T00:00:02.072Z,16.8
2022-08-03T00:10:01.366Z,16.7
2022-08-03T00:15:01.299Z,16.7
2022-08-03T00:20:01.437Z,16.6
2022-08-03T00:30:01.409Z,16.5
2022-08-03T00:45:01.739Z,16.4
2022-08-03T00:55:01.375Z,16.3
2022-08-03T01:00:02.715Z,16.3
2022-08-03T01:10:01.442Z,16.2
2022-08-03T01:15:01.303Z,16.2
2022-08-03T01:25:01.440Z,16.1
2022-08-03T01:30:01.432Z,16.1
2022-08-03T01:45:01.411Z,16.0
2022-08-03T01:55:01.394Z,15.9
2022-08-03T02:00:02.391Z,15.9
2022-08-03T02:10:01.430Z,15.8
2022-08-03T02:15:01.311Z,15.8
2022-08-03T02:30:01.102Z,15.8
2022-08-03T02:35:01.109Z,15.9
2022-08-03T02:45:01.116Z,15.9
2022-08-03T02:50:01.122Z,16.0
2022-08-03T02:55:01.207Z,16.1
2022-08-03T03:00:01.093Z,16.1
2022-08-03T03:05:54.078Z,16.2
2022-08-03T03:10:01.145Z,16.3
2022-08-03T03:15:01.141Z,16.4
2022-08-03T03:20:01.136Z,16.5
2022-08-03T03:25:01.134Z,16.6
2022-08-03T03:30:01.149Z,16.7
2022-08-03T03:40:01.153Z,16.8
2022-08-03T03:45:01.135Z,16.8
2022-08-03T04:00:01.096Z,16.8
2022-08-03T04:10:01.092Z,16.9
2022-08-03T04:15:01.092Z,17.0
2022-08-03T04:25:01.099Z,17.1
2022-08-03T04:30:01.100Z,17.2
2022-08-03T04:40:01.096Z,17.3
2022-08-03T04:45:01.852Z,17.3
2022-08-03T04:50:01.103Z,17.4
2022-08-03T04:55:01.349Z,17.5
2022-08-03T05:00:03.301Z,17.7
2022-08-03T05:05:01.362Z,17.8
2022-08-03T05:10:01.621Z,18.0
2022-08-03T05:15:01.123Z,18.2
2022-08-03T05:20:01.113Z,18.5
2022-08-03T05:25:01.109Z,18.7
2022-08-03T05:30:26.548Z,19.0
2022-08-03T05:36:04.099Z,19.1
2022-08-03T05:41:20.633Z,19.3
2022-08-03T05:46:01.568Z,19.5
2022-08-03T05:51:01.343Z,19.7
2022-08-03T05:56:03.527Z,19.9
2022-08-03T06:01:01.467Z,20.1
2022-08-03T06:06:01.916Z,20.2
2022-08-03T06:11:01.861Z,20.3
2022-08-03T06:16:01.319Z,20.5
2022-08-03T06:21:09.639Z,20.6
2022-08-03T06:26:01.385Z,20.8
2022-08-03T06:32:01.310Z,20.9
2022-08-03T06:37:02.207Z,21.0
2022-08-03T06:42:01.366Z,21.1
2022-08-03T06:47:01.485Z,21.2
2022-08-03T06:57:01.423Z,21.3
2022-08-03T07:12:01.389Z,21.3
2022-08-03T07:22:02.342Z,21.4
2022-08-03T07:27:01.440Z,21.6
2022-08-03T07:32:01.319Z,21.8
2022-08-03T07:37:01.379Z,21.9
2022-08-03T07:42:01.336Z,22.2
2022-08-03T07:47:03.390Z,22.3
2022-08-03T07:52:01.321Z,22.6
2022-08-03T07:57:01.387Z,22.8
2022-08-03T08:02:01.323Z,23.0
2022-08-03T08:07:01.382Z,23.2
2022-08-03T08:12:01.320Z,23.4
2022-08-03T08:17:04.414Z,23.5
2022-08-03T08:22:02.715Z,23.7
2022-08-03T08:27:01.371Z,23.8
2022-08-03T08:32:01.332Z,24.0
2022-08-03T08:37:01.436Z,24.1
2022-08-03T08:42:01.344Z,24.2
2022-08-03T08:47:01.441Z,24.3
2022-08-03T08:52:01.600Z,24.5
2022-08-03T08:57:01.382Z,24.6
2022-08-03T09:02:02.471Z,24.8
2022-08-03T09:07:19.089Z,24.9
2022-08-03T09:12:21.039Z,25.1
2022-08-03T09:17:01.339Z,25.2
2022-08-03T09:22:01.306Z,25.4
2022-08-03T09:27:01.368Z,25.5
2022-08-03T09:32:01.323Z,25.6
2022-08-03T09:37:01.372Z,25.7
2022-08-03T09:42:01.367Z,25.9
2022-08-03T09:47:01.621Z,26.0
2022-08-03T09:52:29.002Z,26.2
2022-08-03T10:07:01.385Z,26.1
2022-08-03T10:17:01.242Z,26.0
2022-08-03T10:22:01.315Z,26.1
2022-08-03T10:27:01.509Z,26.2
2022-08-03T10:32:01.304Z,26.4
2022-08-03T10:37:01.409Z,26.5
2022-08-03T10:52:01.496Z,26.5
2022-08-03T11:02:01.406Z,26.6
2022-08-03T11:07:01.432Z,26.8
2022-08-03T11:12:01.443Z,27.1
2022-08-03T11:17:01.543Z,27.2
2022-08-03T11:22:01.613Z,27.5
2022-08-03T11:27:16.270Z,27.6
2022-08-03T11:32:01.170Z,27.8
2022-08-03T11:38:03.630Z,27.9
2022-08-03T11:53:01.556Z,27.8
2022-08-03T11:59:00.623Z,27.6
2022-08-03T12:03:01.562Z,27.4
2022-08-03T12:08:02.859Z,27.2
2022-08-03T12:13:01.495Z,27.1
2022-08-03T12:23:01.376Z,27.2
2022-08-03T12:28:01.630Z,27.3
2022-08-03T12:33:01.679Z,27.4
2022-08-03T12:38:01.571Z,27.3
2022-08-03T12:43:01.560Z,27.4
2022-08-03T12:53:01.494Z,27.5
2022-08-03T12:58:01.511Z,27.7
2022-08-03T13:03:26.425Z,27.6
2022-08-03T13:13:01.436Z,27.5
2022-08-03T13:18:01.736Z,27.4
2022-08-03T13:23:01.368Z,27.2
2022-08-03T13:33:01.129Z,27.3
2022-08-03T13:38:01.572Z,27.4
2022-08-03T13:43:01.317Z,27.6
2022-08-03T13:48:01.388Z,27.8
2022-08-03T13:54:01.304Z,28.0
2022-08-03T13:59:01.387Z,28.1
2022-08-03T14:14:01.369Z,28.2
2022-08-03T14:29:01.382Z,28.2
2022-08-03T14:34:01.306Z,28.1
2022-08-03T14:39:01.826Z,27.9
2022-08-03T14:44:02.427Z,27.8
2022-08-03T14:50:10.743Z,27.6
2022-08-03T14:54:01.280Z,27.5
2022-08-03T15:04:01.138Z,27.4
2022-08-03T15:14:05.026Z,27.3
2022-08-03T15:24:01.447Z,27.4
2022-08-03T15:29:01.425Z,27.5
2022-08-03T15:34:01.301Z,27.6
2022-08-03T15:39:01.418Z,27.7
2022-08-03T15:44:02.640Z,27.8
2022-08-03T15:54:01.377Z,27.9
2022-08-03T16:09:01.536Z,27.9
2022-08-03T16:14:05.119Z,28.0
2022-08-03T16:19:05.322Z,28.1
2022-08-03T16:24:01.311Z,28.2
2022-08-03T16:29:01.440Z,28.3
2022-08-03T16:34:01.324Z,28.4
2022-08-03T16:44:05.455Z,28.5
2022-08-03T16:49:01.366Z,28.6
2022-08-03T16:54:05.219Z,28.7
2022-08-03T16:59:01.301Z,28.9
2022-08-03T17:04:04.128Z,29.0
2022-08-03T17:14:01.314Z,28.6
2022-08-03T17:19:01.826Z,28.3
2022-08-03T17:24:01.435Z,27.8
2022-08-03T17:29:01.260Z,27.4
2022-08-03T17:34:01.377Z,27.0
2022-08-03T17:39:01.585Z,26.9
2022-08-03T17:44:14.690Z,26.7
2022-08-03T17:49:01.315Z,26.6
2022-08-03T17:54:01.316Z,26.4
2022-08-03T17:59:01.348Z,26.3
2022-08-03T18:04:16.100Z,26.1
2022-08-03T18:10:05.495Z,25.9
2022-08-03T18:14:01.097Z,25.6
2022-08-03T18:19:01.100Z,25.5
2022-08-03T18:24:01.117Z,25.3
2022-08-03T18:29:01.111Z,25.1
2022-08-03T18:34:15.452Z,24.9
2022-08-03T18:39:01.894Z,24.8
2022-08-03T18:45:14.894Z,24.6
2022-08-03T18:50:01.091Z,24.4
2022-08-03T18:55:04.580Z,24.3
2022-08-03T19:00:01.103Z,24.1
2022-08-03T19:05:01.095Z,24.0
2022-08-03T19:10:03.633Z,23.8
2022-08-03T19:15:01.104Z,23.7
2022-08-03T19:20:01.391Z,23.5
2022-08-03T19:25:01.102Z,23.3
2022-08-03T19:30:03.844Z,23.0
2022-08-03T19:35:01.093Z,22.8
2022-08-03T19:40:01.095Z,22.6
2022-08-03T19:45:01.134Z,22.4
2022-08-03T19:50:06.381Z,22.2
2022-08-03T19:55:01.106Z,22.1
2022-08-03T20:00:03.272Z,21.9
2022-08-03T20:05:01.105Z,21.8
2022-08-03T20:10:01.478Z,21.6
2022-08-03T20:15:01.112Z,21.5
2022-08-03T20:20:01.110Z,21.4
2022-08-03T20:26:01.967Z,21.3
2022-08-03T20:31:02.064Z,21.1
2022-08-03T20:41:01.095Z,20.9
2022-08-03T20:51:01.304Z,20.8
2022-08-03T20:56:02.538Z,20.7
2022-08-03T21:01:16.117Z,20.6
2022-08-03T21:06:01.311Z,20.5
2022-08-03T21:11:01.254Z,20.4
2022-08-03T21:21:01.289Z,20.3
2022-08-03T21:26:01.449Z,20.2
2022-08-03T21:32:01.299Z,20.1
2022-08-03T21:37:01.370Z,20.0
2022-08-03T21:47:01.465Z,19.9
2022-08-03T21:57:01.446Z,19.8
2022-08-03T22:02:01.383Z,19.7
2022-08-03T22:12:01.446Z,19.6
2022-08-03T22:17:01.366Z,19.5
2022-08-03T22:22:01.303Z,19.4
2022-08-03T22:32:01.479Z,19.3
2022-08-03T22:37:01.437Z,19.2
2022-08-03T22:47:01.407Z,19.1
2022-08-03T23:02:01.442Z,19.1
2022-08-03T23:07:01.428Z,19.0
2022-08-03T23:17:01.434Z,18.9
2022-08-03T23:22:03.075Z,18.8
2022-08-03T23:27:01.340Z,18.7
2022-08-03T23:32:01.309Z,18.6
2022-08-03T23:42:01.373Z,18.5
2022-08-03T23:52:01.457Z,18.4
